Time;durP1;ratioP1;P1;durP2;ratioP2;P2;SDS_P1;SDS_P2;PMS_P1;PMS_P2;Temp;Humidity;BMP_temperature;BMP_pressure;BME280_temperature;BME280_humidity;BME280_pressure;Samples;Min_cycle;Max_cycle;Signal;HPM_P1;HPM_P2
2024/04/19 00:01:36;;;;;;;6.03;5.43;;;;;;;7.92;100.00;100646.41;5422242;26;20800;-80
2024/04/19 00:04:01;;;;;;;7.63;5.97;;;;;;;7.91;100.00;100644.75;5422209;26;20308;-80
2024/04/19 00:06:26;;;;;;;6.50;5.97;;;;;;;7.89;100.00;100642.28;5422079;26;20381;-81
2024/04/19 00:08:51;;;;;;;6.43;5.83;;;;;;;7.90;100.00;100638.56;5422310;26;20356;-80
2024/04/19 00:11:17;;;;;;;7.10;6.10;;;;;;;7.89;100.00;100641.47;5429476;26;20405;-80
2024/04/19 00:13:42;;;;;;;6.63;6.00;;;;;;;7.86;100.00;100633.81;5431458;26;20307;-80
2024/04/19 00:16:07;;;;;;;7.10;6.40;;;;;;;7.85;100.00;100635.69;5421805;26;20319;-80
2024/04/19 00:18:33;;;;;;;6.85;6.00;;;;;;;7.87;100.00;100630.06;5421334;26;20320;-80
2024/04/19 00:20:58;;;;;;;7.73;6.60;;;;;;;7.88;100.00;100631.72;5419805;26;21058;-80
2024/04/19 00:23:24;;;;;;;6.83;6.17;;;;;;;7.84;100.00;100629.47;5419929;26;20307;-80
2024/04/19 00:25:49;;;;;;;6.55;5.90;;;;;;;7.79;100.00;100621.22;5421827;26;20344;-80
2024/04/19 00:28:15;;;;;;;5.97;5.50;;;;;;;7.81;100.00;100616.41;5421770;26;20367;-81
2024/04/19 00:30:41;;;;;;;7.27;5.90;;;;;;;7.83;100.00;100621.59;5421816;26;20804;-80
2024/04/19 00:33:06;;;;;;;6.97;6.28;;;;;;;7.81;100.00;100623.69;5421798;26;20467;-81
2024/04/19 00:35:31;;;;;;;7.23;6.47;;;;;;;7.82;100.00;100618.06;5421134;26;20857;-80
2024/04/19 00:37:57;;;;;;;6.90;6.30;;;;;;;7.84;100.00;100623.22;5421390;26;20311;-80
2024/04/19 00:40:22;;;;;;;6.87;6.23;;;;;;;7.85;100.00;100624.88;5421238;26;20347;-80
2024/04/19 00:42:52;;;;;;;6.75;6.15;;;;;;;7.87;100.00;100621.97;5421081;26;20330;-80
2024/04/19 00:45:39;;;;;;;8.80;6.00;;;;;;;7.87;100.00;100619.28;5421111;26;20376;-80
2024/04/19 00:48:25;;;;;;;6.78;6.13;;;;;;;7.90;100.00;100618.84;5415690;26;20320;-80
2024/04/19 00:50:53;;;;;;;6.90;6.15;;;;;;;7.90;100.00;100619.66;5389765;26;20389;-80
2024/04/19 00:53:26;;;;;;;7.07;5.68;;;;;;;7.87;100.00;100620.09;5421188;26;20842;-80
2024/04/19 00:55:56;;;;;;;7.53;5.78;;;;;;;7.87;100.00;100613.88;5389647;26;20328;-80
2024/04/19 00:58:23;;;;;;;7.55;5.78;;;;;;;7.83;100.00;100613.50;5399978;26;20364;-80
2024/04/19 01:00:49;;;;;;;6.03;5.53;;;;;;;7.81;100.00;100616.41;5417444;26;20320;-80
2024/04/19 01:03:14;;;;;;;6.65;5.43;;;;;;;7.82;100.00;100606.44;5417426;26;20324;-80
2024/04/19 01:05:39;;;;;;;6.60;6.00;;;;;;;7.83;100.00;100605.41;5417393;26;20414;-80
2024/04/19 01:08:06;;;;;;;9.27;5.97;;;;;;;7.80;100.00;100601.25;5421101;26;20320;-80
2024/04/19 01:10:31;;;;;;;5.75;5.25;;;;;;;7.83;100.00;100602.72;5416873;26;20419;-80
2024/04/19 01:12:58;;;;;;;6.75;5.95;;;;;;;7.83;100.00;100598.16;5417119;26;20328;-80
2024/04/19 01:15:23;;;;;;;6.30;5.70;;;;;;;7.82;100.00;100596.50;5417191;26;20436;-81
2024/04/19 01:17:49;;;;;;;6.17;5.57;;;;;;;7.83;100.00;100586.53;5417027;26;20343;-80
2024/04/19 01:20:14;;;;;;;7.25;5.78;;;;;;;7.83;100.00;100589.22;5416941;26;20319;-80
2024/04/19 01:22:42;;;;;;;6.20;5.70;;;;;;;7.84;100.00;100582.75;5417032;26;20418;-80
2024/04/19 01:25:35;;;;;;;6.25;5.65;;;;;;;7.82;100.00;100580.31;5406621;26;20320;-80
2024/04/19 01:28:05;;;;;;;7.00;5.40;;;;;;;7.75;100.00;100582.25;5413537;26;20874;-80
2024/04/19 01:30:30;;;;;;;6.97;6.28;;;;;;;7.74;100.00;100568.97;5416924;26;20312;-81
2024/04/19 01:32:55;;;;;;;5.97;5.47;;;;;;;7.74;100.00;100569.78;5416876;26;20339;-81
2024/04/19 01:35:20;;;;;;;5.80;5.20;;;;;;;7.76;100.00;100575.81;5416800;26;20323;-80
2024/04/19 01:37:46;;;;;;;5.97;5.32;;;;;;;7.78;100.00;100572.88;5416719;26;20819;-80
2024/04/19 01:40:11;;;;;;;6.47;5.87;;;;;;;7.79;100.00;100577.22;5416857;26;20361;-80
2024/04/19 01:42:36;;;;;;;5.93;5.32;;;;;;;7.80;100.00;100576.19;5385542;26;20363;-80
2024/04/19 01:45:02;;;;;;;5.83;5.33;;;;;;;7.82;100.00;100574.06;5416503;26;20320;-80
2024/04/19 01:47:27;;;;;;;5.65;5.15;;;;;;;7.81;100.00;100564.31;5416415;26;20826;-80
2024/04/19 01:49:52;;;;;;;7.00;5.67;;;;;;;7.81;100.00;100565.16;5416697;26;20323;-80
2024/04/19 01:52:18;;;;;;;5.70;5.20;;;;;;;7.83;100.00;100557.69;5416702;26;20350;-81
2024/04/19 01:58:05;;;;;;;7.85;5.95;;;;;;;7.85;100.00;100557.44;3700950;26;20344;-81
2024/04/19 02:00:30;;;;;;;6.80;5.60;;;;;;;7.82;100.00;100561.41;5416451;26;20320;-81
2024/04/19 02:02:56;;;;;;;7.83;5.60;;;;;;;7.83;100.00;100554.16;5384813;26;20331;-80
2024/04/19 02:05:21;;;;;;;6.10;5.23;;;;;;;7.83;100.00;100560.38;5416394;26;20817;-80
2024/04/19 02:07:46;;;;;;;6.73;5.67;;;;;;;7.83;100.00;100557.69;5416289;26;20340;-80
2024/04/19 02:10:12;;;;;;;5.80;5.20;;;;;;;7.83;100.00;100546.88;5415715;26;20312;-80
2024/04/19 02:12:37;;;;;;;6.40;5.50;;;;;;;7.87;100.00;100552.63;5416072;26;20360;-80
2024/04/19 02:15:02;;;;;;;7.50;5.67;;;;;;;7.88;100.00;100543.50;5415996;26;20324;-80
2024/04/19 02:17:27;;;;;;;6.37;5.77;;;;;;;7.88;100.00;100548.06;5414999;26;20311;-80
2024/04/19 02:19:53;;;;;;;8.33;6.07;;;;;;;7.88;100.00;100540.78;5416153;26;20440;-80
2024/04/19 02:22:18;;;;;;;6.20;5.70;;;;;;;7.88;100.00;100539.97;5416249;26;20307;-80
2024/04/19 02:24:43;;;;;;;8.23;6.25;;;;;;;7.87;100.00;100530.25;5416207;26;20709;-80
2024/04/19 02:30:51;;;;;;;7.47;6.40;;;;;;;7.87;100.00;100524.84;5415782;26;20323;-80
2024/04/19 02:32:38;;;;;;;7.03;5.80;;;;;;;7.83;100.00;100516.38;5415960;26;20411;-80
2024/04/19 02:35:04;;;;;;;8.00;6.30;;;;;;;7.87;100.00;100522.16;5415862;26;20331;-79
2024/04/19 02:37:29;;;;;;;7.45;6.35;;;;;;;7.91;100.00;100520.63;5415746;26;20315;-80
2024/04/19 02:39:54;;;;;;;7.20;6.17;;;;;;;7.88;100.00;100518.38;5416073;26;20332;-81
2024/04/19 02:42:19;;;;;;;8.70;6.63;;;;;;;7.86;100.00;100515.09;5416099;26;20327;-80
2024/04/19 02:44:46;;;;;;;8.07;6.47;;;;;;;7.79;100.00;100513.31;5415924;26;20908;-80
2024/04/19 02:47:11;;;;;;;6.55;6.00;;;;;;;7.81;100.00;100505.81;5416058;26;20414;-80
2024/04/19 02:49:37;;;;;;;7.30;6.60;;;;;;;7.82;100.00;100504.75;5409755;26;20326;-80
2024/04/19 02:52:02;;;;;;;7.63;6.90;;;;;;;7.82;100.00;100504.75;5412131;26;20312;-80
2024/04/19 02:54:27;;;;;;;7.13;6.22;;;;;;;7.81;100.00;100503.09;5384543;26;20327;-80
2024/04/19 02:56:53;;;;;;;7.03;6.30;;;;;;;7.78;100.00;100497.34;5415769;26;20343;-80
2024/04/19 02:59:18;;;;;;;7.60;6.80;;;;;;;7.75;100.00;100487.00;5415501;26;20364;-80
2024/04/19 03:01:43;;;;;;;7.10;6.40;;;;;;;7.76;100.00;100494.88;5415393;26;20407;-80
2024/04/19 03:04:08;;;;;;;9.33;6.63;;;;;;;7.78;100.00;100492.75;5415529;26;20316;-80
2024/04/19 03:06:34;;;;;;;8.03;6.63;;;;;;;7.80;100.00;100493.34;5415484;26;20691;-79
2024/04/19 03:09:02;;;;;;;9.40;7.13;;;;;;;7.80;100.00;100484.47;5415234;26;20315;-80
2024/04/19 03:11:28;;;;;;;10.48;7.80;;;;;;;7.77;100.00;100485.72;5415106;26;20379;-80
2024/04/19 03:13:53;;;;;;;6.80;6.20;;;;;;;7.78;100.00;100484.66;5415237;26;20352;-80
2024/04/19 03:16:18;;;;;;;7.53;6.77;;;;;;;7.81;100.00;100480.69;5415474;26;20312;-80
2024/04/19 03:18:44;;;;;;;7.57;6.63;;;;;;;7.79;100.00;100474.72;5415280;26;20328;-80
2024/04/19 03:21:09;;;;;;;7.93;7.13;;;;;;;7.79;100.00;100478.22;5414241;26;20806;-80
2024/04/19 03:23:34;;;;;;;8.90;6.93;;;;;;;7.82;100.00;100474.25;5415433;26;20315;-80
2024/04/19 03:26:00;;;;;;;8.27;6.83;;;;;;;7.83;100.00;100474.03;5415070;26;20662;-80
2024/04/19 03:28:29;;;;;;;7.43;6.63;;;;;;;7.82;100.00;100463.47;5383794;26;20323;-80
2024/04/19 03:30:54;;;;;;;7.70;6.95;;;;;;;7.80;100.00;100460.97;5415138;26;20316;-80
2024/04/19 03:33:19;;;;;;;9.17;6.37;;;;;;;7.76;100.00;100459.81;5415027;26;20323;-80
2024/04/19 03:35:44;;;;;;;8.10;6.23;;;;;;;7.79;100.00;100455.81;5415116;26;20355;-80
2024/04/19 03:38:10;;;;;;;8.37;6.70;;;;;;;7.80;100.00;100457.47;5383543;26;20664;-80
2024/04/19 03:40:35;;;;;;;10.07;7.20;;;;;;;7.82;100.00;100455.38;5383715;26;20360;-80
2024/04/19 03:43:00;;;;;;;7.47;6.63;;;;;;;7.83;100.00;100448.94;5414743;26;20360;-80
2024/04/19 03:45:41;;;;;;;7.70;7.00;;;;;;;7.82;100.00;100449.97;5414918;26;20474;-80
2024/04/19 03:48:07;;;;;;;11.02;7.70;;;;;;;7.82;100.00;100444.56;5414766;26;20367;-80
2024/04/19 03:50:32;;;;;;;7.50;6.75;;;;;;;7.80;100.00;100444.00;5414512;26;20690;-80
2024/04/19 03:52:59;;;;;;;7.80;7.00;;;;;;;7.76;100.00;100437.41;5383203;26;20336;-80
2024/04/19 03:55:24;;;;;;;11.43;8.10;;;;;;;7.77;100.00;100423.66;5383384;26;20686;-80
2024/04/19 03:57:49;;;;;;;7.80;7.07;;;;;;;7.77;100.00;100426.38;5383122;26;20312;-80
2024/04/19 04:00:15;;;;;;;12.13;8.80;;;;;;;7.73;100.00;100417.09;5414301;26;20772;-80
2024/04/19 04:02:40;;;;;;;8.67;7.77;;;;;;;7.74;100.00;100423.28;5414443;26;20320;-80
2024/04/19 04:05:05;;;;;;;12.48;7.45;;;;;;;7.74;100.00;100415.19;5414470;26;20364;-80
2024/04/19 04:07:30;;;;;;;7.70;6.90;;;;;;;7.72;100.00;100418.16;5414409;26;20339;-80
2024/04/19 04:09:56;;;;;;;7.77;6.97;;;;;;;7.68;100.00;100408.84;5383167;26;20368;-80
2024/04/19 04:12:21;;;;;;;9.23;7.63;;;;;;;7.73;100.00;100406.31;5383084;26;20350;-80
2024/04/19 04:14:46;;;;;;;9.07;7.07;;;;;;;7.70;100.00;100401.38;5414448;26;20452;-80
2024/04/19 04:17:11;;;;;;;9.07;7.07;;;;;;;7.71;100.00;100405.69;5414194;26;20312;-80
2024/04/19 04:19:37;;;;;;;9.73;7.40;;;;;;;7.73;100.00;100400.91;5414102;26;20332;-80
2024/04/19 04:22:02;;;;;;;10.40;7.23;;;;;;;7.74;100.00;100399.00;5414233;26;20359;-80
2024/04/19 04:24:28;;;;;;;8.60;7.80;;;;;;;7.73;100.00;100418.97;5414039;26;20351;-80
2024/04/19 04:26:53;;;;;;;9.63;7.47;;;;;;;7.70;100.00;100409.47;5414051;26;20319;-79
2024/04/19 04:29:18;;;;;;;7.90;7.10;;;;;;;7.70;100.00;100414.03;5414185;26;20368;-80
2024/04/19 04:31:44;;;;;;;8.20;7.40;;;;;;;7.73;100.00;100403.63;5367133;26;20343;-80
2024/04/19 04:34:09;;;;;;;8.30;6.97;;;;;;;7.72;100.00;100418.16;5377699;26;20332;-80
2024/04/19 04:36:34;;;;;;;10.33;7.03;;;;;;;7.71;100.00;100418.34;5417602;26;20328;-78
2024/04/19 04:38:59;;;;;;;9.00;7.00;;;;;;;7.75;100.00;100419.56;5437242;26;20335;-80
2024/04/19 04:41:25;;;;;;;7.97;7.17;;;;;;;7.78;100.00;100416.41;5421099;26;20335;-80
2024/04/19 04:43:50;;;;;;;8.53;7.23;;;;;;;7.77;100.00;100418.28;5406191;26;20417;-80
2024/04/19 04:46:16;;;;;;;8.30;7.33;;;;;;;7.75;100.00;100422.25;5385159;26;20316;-79
2024/04/19 04:48:41;;;;;;;8.48;7.63;;;;;;;7.72;100.00;100420.00;5416691;26;20807;-80
2024/04/19 04:51:06;;;;;;;9.87;7.47;;;;;;;7.73;100.00;100421.66;5412581;26;20334;-80
2024/04/19 04:53:31;;;;;;;8.47;7.53;;;;;;;7.79;100.00;100420.75;5385217;26;20320;-80
2024/04/19 04:55:57;;;;;;;8.93;7.77;;;;;;;7.82;100.00;100413.03;5417126;26;20430;-79
2024/04/19 04:58:22;;;;;;;9.40;8.40;;;;;;;7.76;100.00;100411.25;5385697;26;20336;-79
2024/04/19 05:00:47;;;;;;;10.73;8.90;;;;;;;7.69;100.00;100397.03;5427022;26;20499;-78
2024/04/19 05:03:13;;;;;;;8.73;7.83;;;;;;;7.70;100.00;100400.53;5385698;26;20339;-80
2024/04/19 05:05:39;;;;;;;9.25;8.38;;;;;;;7.73;100.00;100402.78;5385638;26;20366;-81
2024/04/19 05:08:04;;;;;;;11.35;8.45;;;;;;;7.78;100.00;100400.22;5402318;26;20320;-80
2024/04/19 05:10:30;;;;;;;8.52;7.75;;;;;;;7.86;100.00;100399.91;5418851;26;20755;-80
2024/04/19 05:12:57;;;;;;;8.97;8.07;;;;;;;7.85;100.00;100403.66;5440798;26;20360;-83
2024/04/19 05:15:22;;;;;;;10.27;8.27;;;;;;;7.81;100.00;100405.97;5417184;26;20356;-83
2024/04/19 05:17:47;;;;;;;10.57;9.10;;;;;;;7.81;100.00;100400.59;5426798;26;21022;-83
2024/04/19 05:20:13;;;;;;;8.98;8.05;;;;;;;7.86;100.00;100399.91;5385310;26;20327;-82
2024/04/19 05:22:38;;;;;;;9.47;8.47;;;;;;;7.89;100.00;100383.25;5355239;26;20332;-83
2024/04/19 05:25:07;;;;;;;8.73;7.87;;;;;;;7.93;100.00;100370.13;5425457;26;20544;-82
2024/04/19 05:27:33;;;;;;;8.88;7.97;;;;;;;7.92;100.00;100381.97;5429115;26;20323;-82
2024/04/19 05:29:58;;;;;;;9.90;7.80;;;;;;;7.87;100.00;100382.66;5427635;26;20352;-82
2024/04/19 05:32:23;;;;;;;9.23;7.87;;;;;;;7.91;100.00;100383.84;5425749;26;20324;-82
2024/04/19 05:34:48;;;;;;;8.60;7.80;;;;;;;7.94;100.00;100379.84;5417445;26;20325;-81
2024/04/19 05:37:14;;;;;;;9.20;8.20;;;;;;;7.94;100.00;100375.28;5414427;26;20333;-81
2024/04/19 05:39:39;;;;;;;8.67;7.87;;;;;;;7.98;100.00;100379.19;5435364;26;20324;-81
2024/04/19 05:42:05;;;;;;;9.80;8.57;;;;;;;8.00;100.00;100384.38;5423784;26;20320;-80
2024/04/19 05:44:31;;;;;;;9.23;8.33;;;;;;;8.00;100.00;100382.47;5411989;26;20320;-80
2024/04/19 05:47:00;;;;;;;9.20;8.30;;;;;;;7.98;100.00;100378.34;5413953;26;20316;-80
2024/04/19 05:49:25;;;;;;;11.15;8.27;;;;;;;8.00;100.00;100378.97;5414487;26;20866;-80
2024/04/19 05:51:51;;;;;;;9.20;8.07;;;;;;;8.00;100.00;100377.06;5384787;26;20350;-80
2024/04/19 05:54:16;;;;;;;12.20;9.07;;;;;;;8.03;100.00;100373.94;5416320;26;20340;-80
2024/04/19 05:56:41;;;;;;;8.50;7.70;;;;;;;8.05;100.00;100366.41;5414647;26;20344;-80
2024/04/19 05:59:06;;;;;;;8.93;7.97;;;;;;;8.02;100.00;100363.34;5415529;26;20320;-79
2024/04/19 06:01:32;;;;;;;8.33;7.43;;;;;;;8.07;100.00;100361.59;5415089;26;20316;-79
2024/04/19 06:03:58;;;;;;;8.90;8.07;;;;;;;8.03;100.00;100359.59;5384865;26;20323;-80
2024/04/19 06:06:23;;;;;;;10.82;8.52;;;;;;;7.99;100.00;100367.34;5416283;26;20339;-79
2024/04/19 06:08:49;;;;;;;10.17;7.60;;;;;;;7.94;100.00;100356.41;5355294;26;20327;-79
2024/04/19 06:11:14;;;;;;;7.90;7.17;;;;;;;7.97;100.00;100352.44;5416171;26;20904;-79
2024/04/19 06:13:40;;;;;;;9.43;8.17;;;;;;;7.99;100.00;100351.16;5416116;26;20348;-80
2024/04/19 06:16:05;;;;;;;11.33;8.67;;;;;;;8.08;100.00;100355.16;5384715;26;20854;-80
2024/04/19 06:18:31;;;;;;;9.13;7.80;;;;;;;8.08;100.00;100344.38;5404609;26;20331;-80
2024/04/19 06:20:56;;;;;;;9.38;7.60;;;;;;;8.03;100.00;100349.66;5415907;26;20349;-80
2024/04/19 06:23:21;;;;;;;8.93;7.97;;;;;;;8.05;100.00;100347.53;5415836;26;20711;-80
2024/04/19 06:25:47;;;;;;;8.57;7.57;;;;;;;8.06;100.00;100351.06;5415136;26;20316;-80
2024/04/19 06:28:12;;;;;;;8.32;7.55;;;;;;;8.02;100.00;100355.25;5425381;26;20343;-79
2024/04/19 06:30:37;;;;;;;10.47;8.20;;;;;;;7.93;100.00;100335.88;5382621;26;20316;-80
2024/04/19 06:33:03;;;;;;;9.30;7.87;;;;;;;7.94;100.00;100342.09;5415632;26;20362;-79
2024/04/19 06:35:28;;;;;;;10.65;7.90;;;;;;;7.93;100.00;100343.97;5408924;26;20320;-80
2024/04/19 06:37:53;;;;;;;8.73;7.90;;;;;;;7.92;100.00;100330.72;5415844;26;20356;-80
2024/04/19 06:40:19;;;;;;;9.57;8.23;;;;;;;7.96;100.00;100321.09;5415092;26;20364;-79
2024/04/19 06:42:44;;;;;;;13.03;8.00;;;;;;;8.04;100.00;100316.19;5415880;26;20422;-81
2024/04/19 06:45:09;;;;;;;9.20;8.00;;;;;;;8.04;100.00;100313.47;5381800;26;20323;-79
2024/04/19 06:47:35;;;;;;;9.17;8.27;;;;;;;8.07;100.00;100304.91;5415522;26;20316;-79
2024/04/19 06:50:00;;;;;;;8.47;7.67;;;;;;;8.08;100.00;100309.28;5415145;26;20362;-80
2024/04/19 06:52:25;;;;;;;9.80;8.60;;;;;;;8.11;100.00;100305.28;5412255;26;20419;-80
2024/04/19 06:54:51;;;;;;;8.93;7.57;;;;;;;8.09;100.00;100302.00;5383260;26;20323;-80
2024/04/19 06:57:18;;;;;;;11.27;7.67;;;;;;;8.12;100.00;100302.38;5415114;26;20312;-80
2024/04/19 06:59:43;;;;;;;8.48;7.35;;;;;;;8.07;100.00;100304.91;5414299;26;20356;-80
2024/04/19 07:02:09;;;;;;;6.57;6.03;;;;;;;8.03;100.00;100292.16;5415381;26;20391;-80
2024/04/19 07:04:34;;;;;;;7.07;6.40;;;;;;;7.90;100.00;100298.56;5415652;26;20324;-79
2024/04/19 07:06:59;;;;;;;7.13;6.43;;;;;;;7.98;100.00;100290.13;5415198;26;20364;-80
2024/04/19 07:09:24;;;;;;;6.57;5.90;;;;;;;7.92;100.00;100285.66;5382084;26;20404;-81
2024/04/19 07:11:50;;;;;;;7.03;6.53;;;;;;;7.89;100.00;100269.13;5415368;26;20356;-81
2024/04/19 07:14:15;;;;;;;6.97;6.37;;;;;;;7.85;100.00;100290.34;5415200;26;20320;-80
2024/04/19 07:16:40;;;;;;;7.47;6.77;;;;;;;7.80;100.00;100279.44;5415278;26;20790;-80
2024/04/19 07:19:05;;;;;;;10.00;7.20;;;;;;;7.81;100.00;100276.47;5415232;26;20323;-80
2024/04/19 07:21:31;;;;;;;7.67;6.87;;;;;;;7.86;100.00;100291.16;5415093;26;20364;-80
2024/04/19 07:23:56;;;;;;;9.70;7.27;;;;;;;7.89;100.00;100288.00;5405241;26;20414;-80
2024/04/19 07:26:21;;;;;;;8.60;7.80;;;;;;;7.77;100.00;100288.78;5410504;26;20643;-80
2024/04/19 07:28:46;;;;;;;9.37;8.47;;;;;;;7.72;100.00;100295.94;5406453;26;20328;-80
2024/04/19 07:31:12;;;;;;;8.73;7.70;;;;;;;7.63;100.00;100279.25;5413862;26;20744;-79
2024/04/19 07:33:38;;;;;;;8.13;6.97;;;;;;;7.58;100.00;100287.22;5413178;26;20343;-80
2024/04/19 07:36:04;;;;;;;7.65;6.90;;;;;;;7.57;100.00;100273.97;5370284;26;20323;-79
2024/04/19 07:38:29;;;;;;;7.63;6.70;;;;;;;7.63;100.00;100262.25;5399209;26;20363;-79
2024/04/19 07:40:54;;;;;;;6.50;5.83;;;;;;;7.67;100.00;100258.84;5402917;26;20347;-79
2024/04/19 07:43:20;;;;;;;6.20;5.70;;;;;;;7.56;100.00;100256.13;5400623;26;20514;-81
2024/04/19 07:45:45;;;;;;;10.57;6.03;;;;;;;7.54;100.00;100252.84;5410383;26;20352;-80
2024/04/19 07:48:10;;;;;;;6.60;6.00;;;;;;;7.60;100.00;100257.31;5370492;26;20342;-79
2024/04/19 07:50:36;;;;;;;6.80;5.68;;;;;;;7.53;100.00;100243.13;5407260;26;20737;-80
2024/04/19 07:53:01;;;;;;;6.50;5.90;;;;;;;7.48;100.00;100232.19;5411554;26;20713;-80
2024/04/19 07:55:26;;;;;;;6.13;5.53;;;;;;;7.52;100.00;100230.69;5412515;26;20418;-80
2024/04/19 07:57:52;;;;;;;5.93;5.43;;;;;;;7.51;100.00;100232.53;5408927;26;20359;-79
2024/04/19 08:00:17;;;;;;;5.20;4.73;;;;;;;7.39;100.00;100223.59;5411456;26;20319;-79
2024/04/19 08:02:44;;;;;;;5.95;5.40;;;;;;;7.29;100.00;100216.06;5414442;26;20745;-79
2024/04/19 08:05:09;;;;;;;6.47;5.57;;;;;;;7.39;100.00;100218.22;5402544;26;20327;-80
2024/04/19 08:07:35;;;;;;;6.83;5.03;;;;;;;7.40;100.00;100200.19;5411108;26;21162;-80
2024/04/19 08:10:04;;;;;;;6.70;5.23;;;;;;;7.45;100.00;100211.06;5415155;26;20682;-79
2024/04/19 08:12:29;;;;;;;6.88;5.25;;;;;;;7.46;100.00;100186.59;5417681;26;20680;-79
2024/04/19 08:14:54;;;;;;;5.73;5.13;;;;;;;7.49;100.00;100186.13;5407696;26;20327;-79
2024/04/19 08:17:20;;;;;;;5.53;4.97;;;;;;;7.50;100.00;100187.78;5397515;26;20323;-80
2024/04/19 08:19:48;;;;;;;6.10;5.60;;;;;;;7.51;100.00;100178.63;5415674;26;20323;-80
2024/04/19 08:22:14;;;;;;;5.95;5.45;;;;;;;7.49;100.00;100175.34;5410274;26;20813;-80
2024/04/19 08:24:39;;;;;;;6.10;5.50;;;;;;;7.46;100.00;100173.09;5416340;26;20356;-80
2024/04/19 08:27:04;;;;;;;6.37;5.77;;;;;;;7.49;100.00;100152.94;5406608;26;20342;-82
2024/04/19 08:29:32;;;;;;;7.47;6.77;;;;;;;7.50;100.00;100152.72;5411459;26;20347;-80
2024/04/19 08:31:57;;;;;;;7.10;6.40;;;;;;;7.46;100.00;100161.50;5414865;26;20364;-80
2024/04/19 08:34:23;;;;;;;6.97;6.40;;;;;;;7.42;100.00;100142.28;5402184;26;20326;-80
2024/04/19 08:36:48;;;;;;;7.70;6.07;;;;;;;7.39;100.00;100131.94;5383500;26;20795;-80
2024/04/19 08:39:14;;;;;;;6.20;5.70;;;;;;;7.37;100.00;100125.16;5413845;26;20404;-81
2024/04/19 08:41:39;;;;;;;6.43;5.87;;;;;;;7.32;100.00;100126.66;5413737;26;20328;-79
2024/04/19 08:44:05;;;;;;;6.17;5.63;;;;;;;7.41;100.00;100121.75;5412457;26;20354;-79
2024/04/19 08:46:33;;;;;;;7.13;6.45;;;;;;;7.41;100.00;100127.13;5415331;26;20370;-80
2024/04/19 08:49:02;;;;;;;6.22;5.63;;;;;;;7.48;100.00;100113.53;5413854;26;20360;-81
2024/04/19 08:51:29;;;;;;;6.20;5.70;;;;;;;7.56;100.00;100110.53;5417467;26;20319;-80
2024/04/19 08:53:55;;;;;;;5.68;5.28;;;;;;;7.49;100.00;100104.41;5416103;26;20418;-79
2024/04/19 08:56:20;;;;;;;6.32;5.50;;;;;;;7.40;100.00;100103.94;5401447;26;20335;-81
2024/04/19 08:58:46;;;;;;;5.97;5.50;;;;;;;7.43;100.00;100100.78;5404746;26;20341;-79
2024/04/19 09:01:12;;;;;;;6.50;5.87;;;;;;;7.51;100.00;100097.72;5416267;26;20331;-78
2024/04/19 09:03:37;;;;;;;6.93;6.32;;;;;;;7.54;100.00;100101.84;5404735;26;20712;-79
2024/04/19 09:06:04;;;;;;;7.40;6.60;;;;;;;7.48;100.00;100090.09;5371490;26;20414;-79
2024/04/19 09:08:29;;;;;;;7.47;6.80;;;;;;;7.52;100.00;100091.28;5415434;26;20320;-79
2024/04/19 09:10:55;;;;;;;7.33;5.83;;;;;;;7.55;100.00;100098.91;5406417;26;20434;-80
2024/04/19 09:13:21;;;;;;;6.05;5.53;;;;;;;7.53;100.00;100086.72;5401168;26;20327;-79
2024/04/19 09:15:47;;;;;;;5.30;4.90;;;;;;;7.61;100.00;100080.97;5413860;26;20711;-80
2024/04/19 09:18:13;;;;;;;5.83;5.33;;;;;;;7.66;100.00;100070.31;5414337;26;20423;-80
2024/04/19 09:20:44;;;;;;;5.90;5.43;;;;;;;7.81;100.00;100062.53;5400956;26;20324;-80
2024/04/19 09:23:09;;;;;;;6.03;5.45;;;;;;;7.82;100.00;100074.97;5370516;26;20318;-80
2024/04/19 09:25:34;;;;;;;6.33;5.73;;;;;;;7.70;100.00;100061.53;5404571;26;20422;-81
2024/04/19 09:28:00;;;;;;;6.20;5.50;;;;;;;7.50;100.00;100065.63;5413329;26;20311;-81
2024/04/19 09:30:25;;;;;;;6.10;5.60;;;;;;;7.46;100.00;100065.25;5413498;26;20355;-80
2024/04/19 09:32:51;;;;;;;6.90;5.90;;;;;;;7.52;100.00;100075.13;5412191;26;20349;-82
2024/04/19 09:35:16;;;;;;;5.47;4.97;;;;;;;7.50;100.00;100081.81;5407349;26;23180;-81
2024/04/19 09:37:43;;;;;;;7.80;7.03;;;;;;;7.50;100.00;100079.09;5411564;26;20370;-81
2024/04/19 09:40:10;;;;;;;8.07;6.78;;;;;;;7.47;100.00;100064.22;5412803;26;20331;-81
2024/04/19 09:42:38;;;;;;;7.55;6.93;;;;;;;7.51;100.00;100067.28;5410573;26;20324;-82
2024/04/19 09:45:08;;;;;;;7.40;6.75;;;;;;;7.59;100.00;100048.03;5413337;26;20662;-81
2024/04/19 09:47:35;;;;;;;7.65;6.88;;;;;;;7.65;100.00;100053.31;5412705;26;20356;-81
2024/04/19 09:50:02;;;;;;;7.75;7.05;;;;;;;7.71;100.00;100040.75;5382374;26;20376;-81
2024/04/19 09:52:30;;;;;;;7.32;6.63;;;;;;;7.75;100.00;100048.13;5405606;26;20356;-80
2024/04/19 09:55:17;;;;;;;7.80;7.00;;;;;;;7.77;100.00;100034.44;5414773;26;20857;-81
2024/04/19 09:57:46;;;;;;;7.73;7.10;;;;;;;7.84;100.00;100027.00;5383535;26;20559;-80
2024/04/19 10:00:14;;;;;;;7.67;6.87;;;;;;;7.86;100.00;100040.25;5401862;26;20686;-80
2024/04/19 10:02:40;;;;;;;7.15;6.55;;;;;;;7.90;100.00;100027.94;5415607;26;20406;-80
2024/04/19 10:05:06;;;;;;;7.50;6.77;;;;;;;7.81;100.00;100016.69;5415058;26;20328;-83
2024/04/19 10:07:32;;;;;;;8.00;7.30;;;;;;;7.83;100.00;100026.19;5403322;26;20858;-79
2024/04/19 10:09:58;;;;;;;7.57;6.88;;;;;;;7.88;100.00;100021.94;5401463;26;20367;-81
2024/04/19 10:12:24;;;;;;;7.73;7.03;;;;;;;7.95;100.00;100019.94;5414328;26;20360;-81
2024/04/19 10:14:49;;;;;;;7.47;6.70;;;;;;;7.94;100.00;100012.91;5414313;26;20375;-82
2024/04/19 10:17:14;;;;;;;8.18;7.22;;;;;;;7.89;100.00;100019.03;5383715;26;20316;-81
2024/04/19 10:19:43;;;;;;;7.37;6.77;;;;;;;7.89;100.00;100010.09;5412306;26;20320;-83
2024/04/19 10:22:09;;;;;;;7.95;7.18;;;;;;;7.88;100.00;100003.88;5407505;26;20315;-81
2024/04/19 10:24:34;;;;;;;7.23;6.63;;;;;;;7.88;100.00;100006.59;5406882;26;20484;-80
2024/04/19 10:27:02;;;;;;;7.27;6.60;;;;;;;7.87;100.00;99999.53;5383440;26;20342;-80
2024/04/19 10:29:28;;;;;;;7.55;6.75;;;;;;;8.00;100.00;99991.19;5408971;26;20328;-81
2024/04/19 10:31:55;;;;;;;7.50;6.23;;;;;;;8.05;100.00;99993.16;5414106;26;20326;-81
2024/04/19 10:34:22;;;;;;;7.82;6.30;;;;;;;8.09;100.00;99988.94;5390065;26;20362;-82
2024/04/19 10:36:48;;;;;;;7.93;6.60;;;;;;;8.06;100.00;99968.66;5388315;26;20694;-82
2024/04/19 10:39:14;;;;;;;6.70;6.10;;;;;;;8.08;100.00;99990.81;5412603;26;20320;-80
2024/04/19 10:41:52;;;;;;;6.93;6.43;;;;;;;8.06;100.00;99976.75;5415385;26;20367;-80
2024/04/19 10:44:18;;;;;;;7.70;6.90;;;;;;;8.02;100.00;99980.97;5415678;26;20437;-79
2024/04/19 10:46:47;;;;;;;6.87;6.27;;;;;;;7.95;100.00;99979.47;5405774;26;20332;-80
2024/04/19 10:49:20;;;;;;;6.80;6.20;;;;;;;7.96;100.00;99968.47;5382523;26;20645;-79
2024/04/19 10:51:47;;;;;;;6.88;6.30;;;;;;;7.97;100.00;99971.97;5407629;26;20350;-80
2024/04/19 10:54:12;;;;;;;7.20;6.60;;;;;;;7.94;100.00;99973.25;5384508;26;20322;-80
2024/04/19 10:56:37;;;;;;;9.03;6.70;;;;;;;8.03;100.00;99962.91;5384244;26;20406;-84
2024/04/19 10:59:03;;;;;;;6.77;6.17;;;;;;;7.99;100.00;99959.88;5388091;26;20323;-79
2024/04/19 11:01:28;;;;;;;7.00;6.47;;;;;;;7.97;100.00;99955.78;5387461;26;20432;-79
2024/04/19 11:03:54;;;;;;;6.93;6.33;;;;;;;7.97;100.00;99959.28;5385561;26;20314;-80
2024/04/19 11:06:19;;;;;;;6.95;6.35;;;;;;;8.01;100.00;99959.63;5378259;26;20338;-79
2024/04/19 11:08:45;;;;;;;9.63;6.33;;;;;;;7.96;100.00;99951.44;5386497;26;20306;-79
2024/04/19 11:11:10;;;;;;;8.95;6.85;;;;;;;7.94;100.00;99945.44;5386739;26;20359;-80
2024/04/19 11:13:36;;;;;;;8.55;7.75;;;;;;;8.00;100.00;99947.22;5392718;26;20362;-80
2024/04/19 11:16:02;;;;;;;11.57;8.90;;;;;;;7.89;100.00;99935.41;5381738;26;20496;-82
2024/04/19 11:18:28;;;;;;;7.57;6.82;;;;;;;7.84;100.00;99935.28;5391663;26;20421;-79
2024/04/19 11:20:54;;;;;;;7.50;6.80;;;;;;;7.89;100.00;99934.56;5381699;26;21040;-79
2024/04/19 11:23:19;;;;;;;8.48;7.30;;;;;;;7.86;100.00;99929.66;5383370;26;20339;-79
2024/04/19 11:25:45;;;;;;;7.95;7.25;;;;;;;7.84;100.00;99925.31;5387354;26;20322;-79